createdAt,value
2023-04-16T00:00:18.753Z,94529.78
2023-04-16T00:03:21.838Z,94520.22
2023-04-16T00:06:25.028Z,94523.97
2023-04-16T00:09:28.081Z,94522.41
2023-04-16T00:12:32.538Z,94525.53
2023-04-16T00:15:35.638Z,94524.31
2023-04-16T00:18:39.450Z,94527.75
2023-04-16T00:21:42.519Z,94525.09
2023-04-16T00:24:45.579Z,94523.22
2023-04-16T00:27:49.983Z,94527.75
2023-04-16T00:30:53.134Z,94523.53
2023-04-16T00:33:56.305Z,94519.75
2023-04-16T00:36:59.399Z,94525.09
2023-04-16T00:40:02.445Z,94518.50
2023-04-16T00:43:06.931Z,94523.53
2023-04-16T00:46:10.425Z,94523.84
2023-04-16T00:49:13.647Z,94517.69
2023-04-16T00:52:16.815Z,94514.25
2023-04-16T00:55:21.538Z,94506.28
2023-04-16T00:58:27.003Z,94516.13
2023-04-16T01:01:30.219Z,94512.69
2023-04-16T01:04:34.123Z,94511.13
2023-04-16T01:07:37.416Z,94508.16
2023-04-16T01:10:40.547Z,94503.16
2023-04-16T01:13:45.071Z,94508.78
2023-04-16T01:16:48.144Z,94513.00
2023-04-16T01:19:51.175Z,94517.25
2023-04-16T01:22:55.705Z,94508.47
2023-04-16T01:25:58.865Z,94510.34
2023-04-16T01:29:02.025Z,94505.34
2023-04-16T01:32:05.116Z,94509.25
2023-04-16T01:35:08.598Z,94506.91
2023-04-16T01:38:13.165Z,94505.34
2023-04-16T01:41:16.755Z,94513.00
2023-04-16T01:44:19.848Z,94500.81
2023-04-16T01:47:23.178Z,94499.69
2023-04-16T01:50:26.365Z,94499.25
2023-04-16T01:53:30.896Z,94500.81
2023-04-16T01:56:33.880Z,94500.81
2023-04-16T01:59:36.971Z,94496.56
2023-04-16T02:02:42.084Z,94499.25
2023-04-16T02:05:45.149Z,94493.91
2023-04-16T02:08:49.582Z,94492.34
2023-04-16T02:11:52.585Z,94498.44
2023-04-16T02:14:55.641Z,94491.56
2023-04-16T02:17:58.783Z,94495.00
2023-04-16T02:21:01.797Z,94487.03
2023-04-16T02:24:06.648Z,94481.69
2023-04-16T02:27:09.698Z,94489.69
2023-04-16T02:30:13.568Z,94487.34
2023-04-16T02:33:16.723Z,94490.78
2023-04-16T02:36:19.778Z,94493.44
2023-04-16T02:39:24.265Z,94490.78
2023-04-16T02:42:27.297Z,94488.91
2023-04-16T02:45:31.642Z,94488.59
2023-04-16T02:48:34.844Z,94479.03
2023-04-16T02:51:37.861Z,94473.72
2023-04-16T02:54:42.346Z,94477.47
2023-04-16T02:57:45.491Z,94474.81
2023-04-16T03:00:48.662Z,94474.81
2023-04-16T03:03:51.765Z,94476.38
2023-04-16T03:06:54.755Z,94472.63
2023-04-16T03:09:59.167Z,94471.19
2023-04-16T03:13:02.278Z,94480.75
2023-04-16T03:16:05.407Z,94473.88
2023-04-16T03:19:08.737Z,94477.47
2023-04-16T03:22:12.078Z,94480.94
2023-04-16T03:25:16.723Z,94480.94
2023-04-16T03:28:19.839Z,94482.50
2023-04-16T03:31:25.317Z,94476.06
2023-04-16T03:34:28.421Z,94477.16
2023-04-16T03:37:31.441Z,94482.03
2023-04-16T03:40:35.849Z,94481.53
2023-04-16T03:43:38.852Z,94473.25
2023-04-16T03:46:41.880Z,94486.09
2023-04-16T03:49:44.966Z,94482.66
2023-04-16T03:52:49.537Z,94484.06
2023-04-16T03:55:54.104Z,94482.03
2023-04-16T03:58:57.196Z,94487.38
2023-04-16T04:02:00.510Z,94488.44
2023-04-16T04:05:03.849Z,94492.19
2023-04-16T04:08:07.254Z,94492.19
2023-04-16T04:11:11.730Z,94504.72
2023-04-16T04:14:14.873Z,94510.97
2023-04-16T04:17:17.974Z,94502.34
2023-04-16T04:20:21.136Z,94510.13
2023-04-16T04:23:24.225Z,94508.72
2023-04-16T04:26:28.747Z,94520.41
2023-04-16T04:29:31.907Z,94521.28
2023-04-16T04:32:35.017Z,94526.13
2023-04-16T04:35:38.102Z,94526.91
2023-04-16T04:38:41.185Z,94527.22
2023-04-16T04:41:45.970Z,94527.91
2023-04-16T04:44:49.420Z,94527.91
2023-04-16T04:47:53.001Z,94531.66
2023-04-16T04:50:56.206Z,94532.06
2023-04-16T04:53:59.189Z,94531.91
2023-04-16T04:57:03.797Z,94542.53
2023-04-16T05:00:08.160Z,94534.72
2023-04-16T05:03:12.724Z,94530.03
2023-04-16T05:06:15.856Z,94526.09
2023-04-16T05:09:18.928Z,94528.31
2023-04-16T05:12:23.347Z,94531.91
2023-04-16T05:15:26.493Z,94520.66
2023-04-16T05:18:29.536Z,94519.22
2023-04-16T05:21:32.615Z,94522.66
2023-04-16T05:24:35.629Z,94525.31
2023-04-16T05:27:40.674Z,94530.66
2023-04-16T05:30:43.709Z,94526.59
2023-04-16T05:33:46.731Z,94529.88
2023-04-16T05:36:49.871Z,94518.78
2023-04-16T05:39:52.873Z,94521.13
2023-04-16T05:42:57.310Z,94528.16
2023-04-16T05:46:00.465Z,94533.47
2023-04-16T05:49:03.534Z,94531.75
2023-04-16T05:52:07.528Z,94530.03
2023-04-16T05:55:11.365Z,94527.84
2023-04-16T05:58:15.819Z,94531.91
2023-04-16T06:01:19.759Z,94515.06
2023-04-16T06:04:22.953Z,94511.59
2023-04-16T06:07:26.049Z,94521.31
2023-04-16T06:10:29.515Z,94515.06
2023-04-16T06:13:34.116Z,94520.22
2023-04-16T06:16:37.202Z,94512.69
2023-04-16T06:19:40.183Z,94520.72
2023-04-16T06:22:43.266Z,94519.97
2023-04-16T06:25:46.370Z,94529.53
2023-04-16T06:28:51.047Z,94516.56
2023-04-16T06:31:54.230Z,94521.56
2023-04-16T06:34:58.875Z,94514.88
2023-04-16T06:38:01.988Z,94516.16
2023-04-16T06:41:05.222Z,94521.78
2023-04-16T06:44:09.586Z,94526.34
2023-04-16T06:47:12.656Z,94525.56
2023-04-16T06:50:15.770Z,94526.19
2023-04-16T06:53:19.000Z,94513.66
2023-04-16T06:56:22.125Z,94517.84
2023-04-16T06:59:26.686Z,94522.72
2023-04-16T07:02:29.820Z,94516.44
2023-04-16T07:05:32.945Z,94510.19
2023-04-16T07:08:36.023Z,94508.78
2023-04-16T07:11:39.181Z,94515.34
2023-04-16T07:14:44.021Z,94515.81
2023-04-16T07:17:47.757Z,94515.03
2023-04-16T07:20:50.851Z,94519.38
2023-04-16T07:23:53.947Z,94528.38
2023-04-16T07:26:57.076Z,94526.16
2023-04-16T07:30:01.556Z,94522.06
2023-04-16T07:33:05.425Z,94524.44
2023-04-16T07:36:08.916Z,94522.69
2023-04-16T07:39:13.287Z,94522.09
2023-04-16T07:42:16.381Z,94522.69
2023-04-16T07:45:20.934Z,94514.09
2023-04-16T07:48:23.997Z,94524.44
2023-04-16T07:51:27.473Z,94515.50
2023-04-16T07:54:30.896Z,94523.28
2023-04-16T07:57:34.195Z,94519.97
2023-04-16T08:00:39.516Z,94516.66
2023-04-16T08:03:44.449Z,94517.13
2023-04-16T08:06:47.721Z,94518.88
2023-04-16T08:09:52.681Z,94510.88
2023-04-16T08:12:55.795Z,94498.00
2023-04-16T08:16:00.411Z,94494.56
2023-04-16T08:19:03.804Z,94502.44
2023-04-16T08:22:06.925Z,94494.88
2023-04-16T08:25:11.064Z,94497.56
2023-04-16T08:28:14.137Z,94493.97
2023-04-16T08:31:18.746Z,94486.88
2023-04-16T08:34:22.078Z,94493.00
2023-04-16T08:37:25.146Z,94492.03
2023-04-16T08:40:30.775Z,94478.56
2023-04-16T08:43:36.796Z,94484.16
2023-04-16T08:46:42.981Z,94480.84
2023-04-16T08:49:46.878Z,94480.59
2023-04-16T08:52:52.708Z,94473.22
2023-04-16T08:56:01.058Z,94473.03
2023-04-16T08:59:05.605Z,94471.28
2023-04-16T09:02:14.203Z,94464.84
2023-04-16T09:05:19.090Z,94460.47
2023-04-16T09:08:22.548Z,94457.34
2023-04-16T09:11:26.716Z,94453.56
2023-04-16T09:14:30.454Z,94452.00
2023-04-16T09:17:35.941Z,94462.34
2023-04-16T09:20:39.247Z,94455.78
2023-04-16T09:23:43.287Z,94457.81
2023-04-16T09:26:47.154Z,94427.78
2023-04-16T09:29:50.927Z,94452.94
2023-04-16T09:33:14.771Z,94453.38
2023-04-16T09:36:24.429Z,94452.75
2023-04-16T09:39:27.606Z,94441.16
2023-04-16T09:42:32.649Z,94448.06
2023-04-16T09:45:50.692Z,94434.53
2023-04-16T09:48:55.291Z,94426.06
2023-04-16T09:52:00.057Z,94433.28
2023-04-16T09:55:03.141Z,94429.84
2023-04-16T09:58:06.298Z,94414.22
2023-04-16T10:01:10.712Z,94433.16
2023-04-16T10:04:15.243Z,94417.81
2023-04-16T10:07:19.448Z,94418.72
2023-04-16T10:10:23.493Z,94424.84
2023-04-16T10:13:27.983Z,94406.38
2023-04-16T10:16:31.966Z,94417.16
2023-04-16T10:19:37.144Z,94410.47
2023-04-16T10:22:40.482Z,94405.13
2023-04-16T10:25:45.150Z,94400.88
2023-04-16T10:28:48.615Z,94406.22
2023-04-16T10:31:52.923Z,94408.44
2023-04-16T10:34:59.735Z,94397.63
2023-04-16T10:38:23.225Z,94397.75
2023-04-16T10:41:27.822Z,94391.31
2023-04-16T10:44:33.164Z,94394.00
2023-04-16T10:47:43.284Z,94393.66
2023-04-16T10:50:56.120Z,94392.88
2023-04-16T10:54:04.165Z,94391.00
2023-04-16T10:57:10.743Z,94386.00
2023-04-16T11:00:24.424Z,94387.56
2023-04-16T11:03:31.369Z,94387.09
2023-04-16T11:06:36.007Z,94382.88
2023-04-16T11:09:52.866Z,94366.16
2023-04-16T11:12:57.362Z,94372.41
2023-04-16T11:16:00.634Z,94375.06
2023-04-16T11:19:03.751Z,94367.41
2023-04-16T11:22:09.702Z,94366.50
2023-04-16T11:25:13.205Z,94362.28
2023-04-16T11:28:16.315Z,94355.22
2023-04-16T11:31:19.437Z,94360.38
2023-04-16T11:34:22.823Z,94350.34
2023-04-16T11:37:35.402Z,94353.00
2023-04-16T11:40:38.494Z,94345.78
2023-04-16T11:43:41.544Z,94336.13
2023-04-16T11:46:44.676Z,94337.34
2023-04-16T11:49:47.719Z,94332.88
2023-04-16T11:52:53.471Z,94330.13
2023-04-16T11:55:57.280Z,94327.47
2023-04-16T11:59:10.854Z,94322.91
2023-04-16T12:02:14.263Z,94314.91
2023-04-16T12:05:32.078Z,94309.00
2023-04-16T12:08:36.969Z,94302.13
2023-04-16T12:11:40.951Z,94290.88
2023-04-16T12:14:51.592Z,94303.69
2023-04-16T12:18:08.123Z,94303.81
2023-04-16T12:21:11.263Z,94286.34
2023-04-16T12:24:20.660Z,94288.03
2023-04-16T12:27:28.622Z,94290.03
2023-04-16T12:30:31.888Z,94285.94
2023-04-16T12:33:35.162Z,94285.16
2023-04-16T12:36:38.810Z,94271.06
2023-04-16T12:39:43.313Z,94273.06
2023-04-16T12:42:46.716Z,94271.78
2023-04-16T12:45:50.543Z,94272.47
2023-04-16T12:48:54.137Z,94274.53
2023-04-16T12:51:57.776Z,94273.88
2023-04-16T12:55:03.513Z,94266.78
2023-04-16T12:58:07.090Z,94266.44
2023-04-16T13:01:12.037Z,94260.34
2023-04-16T13:04:15.776Z,94263.00
2023-04-16T13:07:19.306Z,94259.88
2023-04-16T13:10:24.382Z,94236.94
2023-04-16T13:13:28.404Z,94242.06
2023-04-16T13:16:31.909Z,94244.72
2023-04-16T13:19:35.338Z,94235.16
2023-04-16T13:22:38.834Z,94240.94
2023-04-16T13:25:43.617Z,94242.22
2023-04-16T13:28:47.223Z,94240.66
2023-04-16T13:31:50.969Z,94240.31
2023-04-16T13:34:54.502Z,94245.84
2023-04-16T13:37:57.950Z,94242.00
2023-04-16T13:41:02.698Z,94249.88
2023-04-16T13:44:06.566Z,94243.00
2023-04-16T13:47:10.347Z,94237.31
2023-04-16T13:50:14.306Z,94237.22
2023-04-16T13:53:17.852Z,94249.88
2023-04-16T13:56:22.349Z,94253.31
2023-04-16T13:59:25.378Z,94252.53
2023-04-16T14:02:28.917Z,94274.00
2023-04-16T14:05:31.947Z,94286.09
2023-04-16T14:08:34.998Z,94287.66
2023-04-16T14:11:39.484Z,94287.31
2023-04-16T14:14:43.118Z,94289.84
2023-04-16T14:17:46.850Z,94293.31
2023-04-16T14:20:50.046Z,94295.19
2023-04-16T14:23:53.118Z,94286.75
2023-04-16T14:26:57.545Z,94286.59
2023-04-16T14:30:00.666Z,94285.47
2023-04-16T14:33:05.132Z,94281.25
2023-04-16T14:36:08.363Z,94288.94
2023-04-16T14:39:11.624Z,94307.28
2023-04-16T14:42:16.346Z,94312.28
2023-04-16T14:45:19.386Z,94305.84
2023-04-16T14:48:22.419Z,94307.28
2023-04-16T14:51:26.497Z,94319.84
2023-04-16T14:54:29.588Z,94319.34
2023-04-16T14:57:34.028Z,94316.69
2023-04-16T15:00:37.155Z,94317.47
2023-04-16T15:03:40.376Z,94319.34
2023-04-16T15:06:44.171Z,94324.97
2023-04-16T15:09:47.289Z,94335.97
2023-04-16T15:12:51.712Z,94344.41
2023-04-16T15:15:54.747Z,94341.34
2023-04-16T15:18:57.830Z,94348.09
2023-04-16T15:22:00.860Z,94357.66
2023-04-16T15:25:04.035Z,94361.09
2023-04-16T15:28:08.537Z,94368.31
2023-04-16T15:31:11.696Z,94359.72
2023-04-16T15:34:14.865Z,94371.75
2023-04-16T15:37:17.993Z,94376.31
2023-04-16T15:40:21.164Z,94362.53
2023-04-16T15:43:28.329Z,94363.19
2023-04-16T15:46:31.400Z,94366.94
2023-04-16T15:49:34.429Z,94376.81
2023-04-16T15:52:38.715Z,94380.94
2023-04-16T15:55:43.730Z,94385.47
2023-04-16T15:58:48.138Z,94381.22
2023-04-16T16:01:51.599Z,94376.09
2023-04-16T16:04:54.738Z,94372.38
2023-04-16T16:07:58.792Z,94382.72
2023-04-16T16:11:01.989Z,94385.50
2023-04-16T16:14:06.532Z,94374.06
2023-04-16T16:17:09.610Z,94366.06
2023-04-16T16:20:12.883Z,94364.50
2023-04-16T16:23:15.992Z,94368.41
2023-04-16T16:26:20.629Z,94372.00
2023-04-16T16:29:25.554Z,94373.09
2023-04-16T16:32:28.699Z,94368.75
2023-04-16T16:35:32.660Z,94380.81
2023-04-16T16:38:35.813Z,94379.25
2023-04-16T16:41:42.208Z,94382.41
2023-04-16T16:44:46.990Z,94391.97
2023-04-16T16:47:50.053Z,94391.19
2023-04-16T16:50:53.118Z,94393.06
2023-04-16T16:53:56.229Z,94391.84
2023-04-16T16:56:59.709Z,94392.16
2023-04-16T17:00:05.628Z,94392.47
2023-04-16T17:03:09.007Z,94392.03
2023-04-16T17:06:12.521Z,94395.00
2023-04-16T17:09:15.625Z,94390.78
2023-04-16T17:12:18.700Z,94394.53
2023-04-16T17:15:23.151Z,94402.84
2023-04-16T17:18:26.242Z,94402.06
2023-04-16T17:21:29.411Z,94390.31
2023-04-16T17:24:32.447Z,94410.97
2023-04-16T17:27:35.571Z,94392.81
2023-04-16T17:30:39.966Z,94406.91
2023-04-16T17:33:42.961Z,94406.25
2023-04-16T17:36:46.946Z,94408.13
2023-04-16T17:39:50.529Z,94407.88
2023-04-16T17:42:53.620Z,94412.88
2023-04-16T17:45:58.200Z,94411.63
2023-04-16T17:49:01.258Z,94407.41
2023-04-16T17:52:04.328Z,94406.75
2023-04-16T17:55:08.135Z,94413.34
2023-04-16T17:58:11.317Z,94418.19
2023-04-16T18:01:15.814Z,94410.84
2023-04-16T18:04:19.424Z,94419.28
2023-04-16T18:07:22.827Z,94409.72
2023-04-16T18:10:25.896Z,94410.25
2023-04-16T18:13:28.911Z,94408.19
2023-04-16T18:16:33.769Z,94423.16
2023-04-16T18:19:36.823Z,94410.63
2023-04-16T18:22:39.944Z,94419.22
2023-04-16T18:25:43.327Z,94421.56
2023-04-16T18:28:46.403Z,94415.91
2023-04-16T18:31:50.925Z,94422.16
2023-04-16T18:34:54.020Z,94425.94
2023-04-16T18:37:57.060Z,94426.25
2023-04-16T18:41:02.058Z,94423.91
2023-04-16T18:44:05.198Z,94422.16
2023-04-16T18:47:09.943Z,94427.94
2023-04-16T18:50:13.009Z,94419.97
2023-04-16T18:53:16.350Z,94390.28
2023-04-16T18:56:19.591Z,94425.28
2023-04-16T18:59:22.721Z,94422.28
2023-04-16T19:02:27.232Z,94418.06
2023-04-16T19:05:30.321Z,94428.91
2023-04-16T19:08:33.336Z,94430.47
2023-04-16T19:11:36.382Z,94430.00
2023-04-16T19:14:39.463Z,94429.84
2023-04-16T19:17:43.887Z,94420.47
2023-04-16T19:20:47.022Z,94430.63
2023-04-16T19:23:50.024Z,94432.50
2023-04-16T19:26:53.146Z,94425.94
2023-04-16T19:29:56.368Z,94422.81
2023-04-16T19:33:01.012Z,94423.59
2023-04-16T19:36:04.169Z,94416.69
2023-04-16T19:39:07.381Z,94418.25
2023-04-16T19:42:10.429Z,94419.03
2023-04-16T19:45:13.758Z,94409.03
2023-04-16T19:48:18.439Z,94416.84
2023-04-16T19:51:21.455Z,94421.38
2023-04-16T19:54:24.449Z,94424.03
2023-04-16T19:57:27.522Z,94425.16
2023-04-16T20:00:31.662Z,94418.59
2023-04-16T20:03:36.240Z,94422.81
2023-04-16T20:06:39.374Z,94422.03
2023-04-16T20:09:43.874Z,94413.13
2023-04-16T20:12:47.043Z,94424.44
2023-04-16T20:15:53.218Z,94417.22
2023-04-16T20:18:57.848Z,94423.47
2023-04-16T20:22:00.886Z,94419.44
2023-04-16T20:25:04.237Z,94423.00
2023-04-16T20:28:07.242Z,94423.34
2023-04-16T20:31:11.176Z,94417.22
2023-04-16T20:34:15.737Z,94419.13
2023-04-16T20:37:19.839Z,94415.22
2023-04-16T20:40:24.039Z,94406.63
2023-04-16T20:43:29.815Z,94417.41
2023-04-16T20:46:34.276Z,94415.84
2023-04-16T20:49:40.444Z,94423.06
2023-04-16T20:52:43.543Z,94402.84
2023-04-16T20:55:46.608Z,94416.50
2023-04-16T20:58:49.775Z,94422.59
2023-04-16T21:01:53.388Z,94417.56
2023-04-16T21:04:58.001Z,94413.34
2023-04-16T21:08:01.162Z,94418.69
2023-04-16T21:11:04.250Z,94412.56
2023-04-16T21:14:07.964Z,94404.88
2023-04-16T21:17:11.148Z,94412.06
2023-04-16T21:20:15.991Z,94405.19
2023-04-16T21:23:19.104Z,94408.63
2023-04-16T21:26:22.391Z,94412.41
2023-04-16T21:29:25.434Z,94408.16
2023-04-16T21:32:28.880Z,94409.59
2023-04-16T21:35:34.645Z,94397.38
2023-04-16T21:38:37.764Z,94414.59
2023-04-16T21:41:40.833Z,94404.44
2023-04-16T21:44:43.829Z,94407.25
2023-04-16T21:47:46.878Z,94404.59
2023-04-16T21:50:58.165Z,94408.34
2023-04-16T21:54:01.167Z,94411.81
2023-04-16T21:57:04.320Z,94410.25
2023-04-16T22:00:13.765Z,94403.81
2023-04-16T22:03:17.489Z,94409.47
2023-04-16T22:06:22.434Z,94407.91
2023-04-16T22:09:25.908Z,94397.25
2023-04-16T22:12:28.914Z,94402.88
2023-04-16T22:15:32.206Z,94401.00
2023-04-16T22:18:35.248Z,94392.56
2023-04-16T22:21:39.673Z,94396.78
2023-04-16T22:24:43.384Z,94394.13
2023-04-16T22:27:46.387Z,94389.09
2023-04-16T22:30:49.501Z,94376.28
2023-04-16T22:33:52.592Z,94380.31
2023-04-16T22:36:57.100Z,94392.56
2023-04-16T22:40:00.302Z,94371.91
2023-04-16T22:43:03.359Z,94372.38
2023-04-16T22:46:08.120Z,94379.06
2023-04-16T22:49:11.523Z,94378.31
2023-04-16T22:52:16.093Z,94372.19
2023-04-16T22:55:19.492Z,94368.63
2023-04-16T22:58:22.640Z,94356.53
2023-04-16T23:01:25.936Z,94345.16
2023-04-16T23:04:29.100Z,94368.75
2023-04-16T23:07:33.567Z,94355.94
2023-04-16T23:10:36.667Z,94360.75
2023-04-16T23:13:39.794Z,94364.53
2023-04-16T23:16:42.793Z,94355.75
2023-04-16T23:19:45.868Z,94359.19
2023-04-16T23:22:50.331Z,94362.97
2023-04-16T23:25:54.361Z,94360.63
2023-04-16T23:28:57.610Z,94359.84
2023-04-16T23:32:00.717Z,94354.53
2023-04-16T23:35:03.754Z,94357.97
2023-04-16T23:38:08.148Z,94362.19
2023-04-16T23:41:11.203Z,94349.19
2023-04-16T23:44:14.235Z,94356.84
2023-04-16T23:47:17.316Z,94352.97
2023-04-16T23:50:20.618Z,94345.75
2023-04-16T23:53:25.371Z,94342.31
2023-04-16T23:56:28.367Z,94334.31
2023-04-16T23:59:31.418Z,94339.66
